sensor_id;sensor_type;location;lat;lon;timestamp;P1;P2;P0
80555;PMS5003;69889;55.040;73.076;2023-09-08T00:00:33;11.25;10.00;6.00
80555;PMS5003;69889;55.040;73.076;2023-09-08T00:03:00;9.00;8.00;6.00
80555;PMS5003;69889;55.040;73.076;2023-09-08T00:05:27;11.00;9.00;5.00
80555;PMS5003;69889;55.040;73.076;2023-09-08T00:07:53;9.50;8.00;6.00
80555;PMS5003;69889;55.040;73.076;2023-09-08T00:10:20;8.00;7.00;5.00
80555;PMS5003;69889;55.040;73.076;2023-09-08T00:12:47;9.00;8.00;5.00
80555;PMS5003;69889;55.040;73.076;2023-09-08T00:15:13;8.00;7.00;5.00
80555;PMS5003;69889;55.040;73.076;2023-09-08T00:17:40;7.00;6.00;4.00
80555;PMS5003;69889;55.040;73.076;2023-09-08T00:20:07;8.00;7.00;5.00
80555;PMS5003;69889;55.040;73.076;2023-09-08T00:22:37;6.25;6.00;4.75
80555;PMS5003;69889;55.040;73.076;2023-09-08T00:25:04;9.00;8.00;6.00
80555;PMS5003;69889;55.040;73.076;2023-09-08T00:27:30;9.00;8.00;5.00
80555;PMS5003;69889;55.040;73.076;2023-09-08T00:29:58;7.75;7.00;5.00
80555;PMS5003;69889;55.040;73.076;2023-09-08T00:32:24;10.00;8.25;6.00
80555;PMS5003;69889;55.040;73.076;2023-09-08T00:34:51;10.00;9.00;6.00
80555;PMS5003;69889;55.040;73.076;2023-09-08T00:37:18;10.00;9.00;7.00
80555;PMS5003;69889;55.040;73.076;2023-09-08T00:39:45;11.00;10.00;7.00
80555;PMS5003;69889;55.040;73.076;2023-09-08T00:42:11;11.50;9.50;6.00
80555;PMS5003;69889;55.040;73.076;2023-09-08T00:44:38;14.00;12.00;7.00
80555;PMS5003;69889;55.040;73.076;2023-09-08T00:47:05;16.00;13.75;8.00
80555;PMS5003;69889;55.040;73.076;2023-09-08T00:49:32;14.00;11.00;8.00
80555;PMS5003;69889;55.040;73.076;2023-09-08T00:51:58;14.00;12.00;8.00
80555;PMS5003;69889;55.040;73.076;2023-09-08T00:54:28;14.00;11.00;7.00
80555;PMS5003;69889;55.040;73.076;2023-09-08T00:56:55;15.00;12.50;8.00
80555;PMS5003;69889;55.040;73.076;2023-09-08T00:59:23;17.00;15.00;10.00
80555;PMS5003;69889;55.040;73.076;2023-09-08T01:01:51;17.75;16.00;10.75
80555;PMS5003;69889;55.040;73.076;2023-09-08T01:04:18;21.00;17.00;11.00
80555;PMS5003;69889;55.040;73.076;2023-09-08T01:06:44;20.00;16.00;10.50
80555;PMS5003;69889;55.040;73.076;2023-09-08T01:09:13;20.75;17.50;11.00
80555;PMS5003;69889;55.040;73.076;2023-09-08T01:11:41;23.25;18.00;11.75
80555;PMS5003;69889;55.040;73.076;2023-09-08T01:14:07;21.00;18.00;12.00
80555;PMS5003;69889;55.040;73.076;2023-09-08T01:16:35;20.00;17.00;11.00
80555;PMS5003;69889;55.040;73.076;2023-09-08T01:19:04;23.00;20.00;12.25
80555;PMS5003;69889;55.040;73.076;2023-09-08T01:26:55;32.00;26.75;17.50
80555;PMS5003;69889;55.040;73.076;2023-09-08T01:29:23;31.25;23.50;16.25
80555;PMS5003;69889;55.040;73.076;2023-09-08T01:31:53;33.00;27.00;18.00
80555;PMS5003;69889;55.040;73.076;2023-09-08T01:34:20;31.00;26.25;16.50
80555;PMS5003;69889;55.040;73.076;2023-09-08T01:36:47;29.00;25.00;17.00
80555;PMS5003;69889;55.040;73.076;2023-09-08T01:39:14;31.00;26.00;16.00
80555;PMS5003;69889;55.040;73.076;2023-09-08T01:41:41;27.75;23.75;15.50
80555;PMS5003;69889;55.040;73.076;2023-09-08T01:44:08;27.50;23.50;14.75
80555;PMS5003;69889;55.040;73.076;2023-09-08T01:46:36;27.00;23.00;14.75
80555;PMS5003;69889;55.040;73.076;2023-09-08T01:49:03;30.00;25.00;16.00
80555;PMS5003;69889;55.040;73.076;2023-09-08T01:51:29;25.00;21.75;16.00
80555;PMS5003;69889;55.040;73.076;2023-09-08T01:53:56;24.00;21.00;13.50
80555;PMS5003;69889;55.040;73.076;2023-09-08T01:56:23;24.00;21.50;14.00
80555;PMS5003;69889;55.040;73.076;2023-09-08T01:58:49;23.75;21.00;14.00
80555;PMS5003;69889;55.040;73.076;2023-09-08T02:01:16;24.00;20.00;14.00
80555;PMS5003;69889;55.040;73.076;2023-09-08T02:03:43;24.00;20.50;12.25
80555;PMS5003;69889;55.040;73.076;2023-09-08T02:06:09;21.00;19.00;14.00
80555;PMS5003;69889;55.040;73.076;2023-09-08T02:08:36;22.50;20.00;14.75
80555;PMS5003;69889;55.040;73.076;2023-09-08T02:11:02;22.50;19.50;13.00
80555;PMS5003;69889;55.040;73.076;2023-09-08T02:13:29;20.50;19.00;13.00
80555;PMS5003;69889;55.040;73.076;2023-09-08T02:15:55;24.00;21.00;13.00
80555;PMS5003;69889;55.040;73.076;2023-09-08T02:18:22;16.75;15.00;11.00
80555;PMS5003;69889;55.040;73.076;2023-09-08T02:20:50;20.00;18.00;12.00
80555;PMS5003;69889;55.040;73.076;2023-09-08T02:23:17;20.50;18.50;12.50
80555;PMS5003;69889;55.040;73.076;2023-09-08T02:25:43;17.00;16.00;11.25
80555;PMS5003;69889;55.040;73.076;2023-09-08T02:28:11;17.00;15.50;11.00
80555;PMS5003;69889;55.040;73.076;2023-09-08T02:30:37;19.00;16.00;11.00
80555;PMS5003;69889;55.040;73.076;2023-09-08T02:33:04;21.00;19.00;12.75
80555;PMS5003;69889;55.040;73.076;2023-09-08T02:35:35;19.75;17.25;12.00
80555;PMS5003;69889;55.040;73.076;2023-09-08T02:38:01;20.00;17.50;12.50
80555;PMS5003;69889;55.040;73.076;2023-09-08T02:40:28;22.75;18.00;12.00
80555;PMS5003;69889;55.040;73.076;2023-09-08T02:42:57;21.00;18.00;12.00
80555;PMS5003;69889;55.040;73.076;2023-09-08T02:45:24;21.00;19.00;12.00
80555;PMS5003;69889;55.040;73.076;2023-09-08T02:47:51;22.00;20.00;13.00
80555;PMS5003;69889;55.040;73.076;2023-09-08T02:50:18;22.75;20.00;13.00
80555;PMS5003;69889;55.040;73.076;2023-09-08T02:52:44;20.25;17.00;12.00
80555;PMS5003;69889;55.040;73.076;2023-09-08T02:55:11;20.00;18.00;12.00
80555;PMS5003;69889;55.040;73.076;2023-09-08T02:57:39;18.00;16.00;11.25
80555;PMS5003;69889;55.040;73.076;2023-09-08T03:00:07;19.00;16.00;9.75
80555;PMS5003;69889;55.040;73.076;2023-09-08T03:02:34;16.50;14.25;10.00
80555;PMS5003;69889;55.040;73.076;2023-09-08T03:05:01;16.00;14.00;9.00
80555;PMS5003;69889;55.040;73.076;2023-09-08T03:07:30;14.00;13.00;9.00
80555;PMS5003;69889;55.040;73.076;2023-09-08T03:10:09;15.75;14.00;9.00
80555;PMS5003;69889;55.040;73.076;2023-09-08T03:12:37;16.00;14.00;10.00
80555;PMS5003;69889;55.040;73.076;2023-09-08T03:15:04;17.00;14.00;9.00
80555;PMS5003;69889;55.040;73.076;2023-09-08T03:17:31;14.25;13.75;9.75
80555;PMS5003;69889;55.040;73.076;2023-09-08T03:19:58;10.75;10.00;7.75
80555;PMS5003;69889;55.040;73.076;2023-09-08T03:22:24;12.00;10.25;7.00
80555;PMS5003;69889;55.040;73.076;2023-09-08T03:24:52;13.00;12.00;9.00
80555;PMS5003;69889;55.040;73.076;2023-09-08T03:27:19;14.00;12.50;9.00
80555;PMS5003;69889;55.040;73.076;2023-09-08T03:29:46;12.25;11.00;7.50
80555;PMS5003;69889;55.040;73.076;2023-09-08T03:32:12;13.00;11.75;8.00
80555;PMS5003;69889;55.040;73.076;2023-09-08T03:34:39;11.00;10.00;7.00
80555;PMS5003;69889;55.040;73.076;2023-09-08T03:37:07;12.00;10.00;7.00
80555;PMS5003;69889;55.040;73.076;2023-09-08T03:39:34;10.00;9.00;6.00
80555;PMS5003;69889;55.040;73.076;2023-09-08T03:42:01;10.00;9.00;6.00
80555;PMS5003;69889;55.040;73.076;2023-09-08T03:44:28;10.00;9.00;7.00
80555;PMS5003;69889;55.040;73.076;2023-09-08T03:46:55;9.00;8.00;6.00
80555;PMS5003;69889;55.040;73.076;2023-09-08T03:49:21;12.00;10.50;6.00
80555;PMS5003;69889;55.040;73.076;2023-09-08T03:51:48;10.00;9.00;7.00
80555;PMS5003;69889;55.040;73.076;2023-09-08T03:54:15;9.00;8.25;6.00
80555;PMS5003;69889;55.040;73.076;2023-09-08T03:56:41;8.25;7.75;5.75
80555;PMS5003;69889;55.040;73.076;2023-09-08T03:59:08;9.00;8.00;6.00
80555;PMS5003;69889;55.040;73.076;2023-09-08T04:01:34;9.00;9.00;6.00
80555;PMS5003;69889;55.040;73.076;2023-09-08T04:04:02;10.00;9.00;6.00
80555;PMS5003;69889;55.040;73.076;2023-09-08T04:06:30;10.00;9.00;6.00
80555;PMS5003;69889;55.040;73.076;2023-09-08T04:08:56;8.00;8.00;5.00
80555;PMS5003;69889;55.040;73.076;2023-09-08T04:11:23;9.00;8.00;6.00
80555;PMS5003;69889;55.040;73.076;2023-09-08T04:13:50;9.00;8.00;6.00
80555;PMS5003;69889;55.040;73.076;2023-09-08T04:16:16;6.00;6.00;4.00
80555;PMS5003;69889;55.040;73.076;2023-09-08T04:18:43;5.00;5.00;4.00
80555;PMS5003;69889;55.040;73.076;2023-09-08T04:21:11;8.00;7.00;5.00
80555;PMS5003;69889;55.040;73.076;2023-09-08T04:23:37;6.00;6.00;3.00
80555;PMS5003;69889;55.040;73.076;2023-09-08T04:26:04;6.00;6.00;4.00
80555;PMS5003;69889;55.040;73.076;2023-09-08T04:28:34;7.00;7.00;4.00
80555;PMS5003;69889;55.040;73.076;2023-09-08T04:31:18;4.75;4.75;3.00
80555;PMS5003;69889;55.040;73.076;2023-09-08T04:33:45;7.00;6.00;4.00
80555;PMS5003;69889;55.040;73.076;2023-09-08T04:36:12;6.75;6.00;4.00
80555;PMS5003;69889;55.040;73.076;2023-09-08T04:38:39;5.00;5.00;3.00
80555;PMS5003;69889;55.040;73.076;2023-09-08T04:41:09;6.00;5.00;4.00
80555;PMS5003;69889;55.040;73.076;2023-09-08T04:43:36;5.00;5.00;3.50
80555;PMS5003;69889;55.040;73.076;2023-09-08T04:46:03;5.00;4.75;3.00
80555;PMS5003;69889;55.040;73.076;2023-09-08T04:48:30;6.00;5.25;3.25
80555;PMS5003;69889;55.040;73.076;2023-09-08T04:50:57;6.00;5.50;3.00
80555;PMS5003;69889;55.040;73.076;2023-09-08T04:53:24;7.00;7.00;4.00
80555;PMS5003;69889;55.040;73.076;2023-09-08T04:55:50;7.00;6.00;3.75
80555;PMS5003;69889;55.040;73.076;2023-09-08T04:58:17;7.75;6.00;4.00
80555;PMS5003;69889;55.040;73.076;2023-09-08T05:00:44;8.00;6.00;3.25
80555;PMS5003;69889;55.040;73.076;2023-09-08T05:03:11;8.00;7.25;5.50
80555;PMS5003;69889;55.040;73.076;2023-09-08T05:05:38;7.00;6.50;5.00
80555;PMS5003;69889;55.040;73.076;2023-09-08T05:08:05;9.75;8.00;5.75
80555;PMS5003;69889;55.040;73.076;2023-09-08T05:10:32;10.00;8.00;5.00
80555;PMS5003;69889;55.040;73.076;2023-09-08T05:13:00;13.00;11.00;7.00
80555;PMS5003;69889;55.040;73.076;2023-09-08T05:15:27;9.25;7.50;5.00
80555;PMS5003;69889;55.040;73.076;2023-09-08T05:17:55;10.00;8.25;4.75
80555;PMS5003;69889;55.040;73.076;2023-09-08T05:20:27;11.75;9.00;6.00
80555;PMS5003;69889;55.040;73.076;2023-09-08T05:22:54;13.00;11.00;6.00
80555;PMS5003;69889;55.040;73.076;2023-09-08T05:25:22;13.50;10.75;6.00
80555;PMS5003;69889;55.040;73.076;2023-09-08T05:27:48;14.00;12.00;7.00
80555;PMS5003;69889;55.040;73.076;2023-09-08T05:30:17;15.75;13.00;8.00
80555;PMS5003;69889;55.040;73.076;2023-09-08T05:32:43;16.00;13.00;9.00
80555;PMS5003;69889;55.040;73.076;2023-09-08T05:35:10;9.75;8.00;5.00
80555;PMS5003;69889;55.040;73.076;2023-09-08T05:37:37;10.75;9.00;5.50
80555;PMS5003;69889;55.040;73.076;2023-09-08T05:40:04;10.00;9.00;6.00
80555;PMS5003;69889;55.040;73.076;2023-09-08T05:42:31;13.00;11.00;7.00
80555;PMS5003;69889;55.040;73.076;2023-09-08T05:44:58;13.00;10.00;6.50
80555;PMS5003;69889;55.040;73.076;2023-09-08T05:47:24;13.50;12.00;7.25
80555;PMS5003;69889;55.040;73.076;2023-09-08T05:49:51;14.50;12.00;8.00
80555;PMS5003;69889;55.040;73.076;2023-09-08T05:52:18;15.00;13.00;7.00
80555;PMS5003;69889;55.040;73.076;2023-09-08T05:54:45;14.25;12.25;8.00
80555;PMS5003;69889;55.040;73.076;2023-09-08T05:57:12;19.00;15.00;8.25
80555;PMS5003;69889;55.040;73.076;2023-09-08T05:59:39;15.00;12.00;8.00
80555;PMS5003;69889;55.040;73.076;2023-09-08T06:02:06;18.00;15.00;9.00
80555;PMS5003;69889;55.040;73.076;2023-09-08T06:04:32;17.00;14.25;8.75
80555;PMS5003;69889;55.040;73.076;2023-09-08T06:07:00;21.00;18.00;11.00
80555;PMS5003;69889;55.040;73.076;2023-09-08T06:09:27;7.00;6.00;4.00
80555;PMS5003;69889;55.040;73.076;2023-09-08T06:11:54;6.00;5.00;3.00
80555;PMS5003;69889;55.040;73.076;2023-09-08T06:14:21;3.00;3.00;3.00
80555;PMS5003;69889;55.040;73.076;2023-09-08T06:16:48;3.75;4.00;3.00
80555;PMS5003;69889;55.040;73.076;2023-09-08T06:19:17;6.00;5.00;3.00
80555;PMS5003;69889;55.040;73.076;2023-09-08T06:21:44;7.50;7.00;4.00
80555;PMS5003;69889;55.040;73.076;2023-09-08T06:24:11;13.00;11.00;7.00
80555;PMS5003;69889;55.040;73.076;2023-09-08T06:26:38;10.75;9.00;6.00
80555;PMS5003;69889;55.040;73.076;2023-09-08T06:29:05;6.75;6.00;4.00
80555;PMS5003;69889;55.040;73.076;2023-09-08T06:31:32;8.00;6.50;3.00
80555;PMS5003;69889;55.040;73.076;2023-09-08T06:33:59;7.00;7.00;4.00
80555;PMS5003;69889;55.040;73.076;2023-09-08T06:36:26;8.00;7.00;4.25
80555;PMS5003;69889;55.040;73.076;2023-09-08T06:38:53;7.00;6.00;4.00
80555;PMS5003;69889;55.040;73.076;2023-09-08T06:41:19;8.50;7.00;5.00
80555;PMS5003;69889;55.040;73.076;2023-09-08T06:43:46;9.00;8.00;5.00
80555;PMS5003;69889;55.040;73.076;2023-09-08T06:46:17;9.00;7.50;5.00
80555;PMS5003;69889;55.040;73.076;2023-09-08T06:48:44;8.00;7.00;4.25
80555;PMS5003;69889;55.040;73.076;2023-09-08T06:51:10;7.00;6.00;4.00
80555;PMS5003;69889;55.040;73.076;2023-09-08T06:53:39;7.00;6.00;4.00
80555;PMS5003;69889;55.040;73.076;2023-09-08T06:56:06;13.00;11.00;7.00
80555;PMS5003;69889;55.040;73.076;2023-09-08T06:58:33;10.00;8.75;5.75
80555;PMS5003;69889;55.040;73.076;2023-09-08T07:01:01;7.25;6.00;4.00
80555;PMS5003;69889;55.040;73.076;2023-09-08T07:03:27;11.00;9.00;5.00
80555;PMS5003;69889;55.040;73.076;2023-09-08T07:05:54;12.00;10.00;6.50
80555;PMS5003;69889;55.040;73.076;2023-09-08T07:08:22;11.00;9.00;6.00
80555;PMS5003;69889;55.040;73.076;2023-09-08T07:10:51;10.50;9.00;6.00
80555;PMS5003;69889;55.040;73.076;2023-09-08T07:13:18;11.75;9.00;6.00
80555;PMS5003;69889;55.040;73.076;2023-09-08T07:15:45;14.00;12.00;6.50
80555;PMS5003;69889;55.040;73.076;2023-09-08T07:18:12;16.50;13.50;8.00
80555;PMS5003;69889;55.040;73.076;2023-09-08T07:20:39;17.25;14.00;8.00
80555;PMS5003;69889;55.040;73.076;2023-09-08T07:23:06;15.00;11.75;8.00
80555;PMS5003;69889;55.040;73.076;2023-09-08T07:25:33;14.00;12.50;9.00
80555;PMS5003;69889;55.040;73.076;2023-09-08T07:28:00;16.00;13.00;8.00
80555;PMS5003;69889;55.040;73.076;2023-09-08T07:30:27;14.00;12.00;7.00
80555;PMS5003;69889;55.040;73.076;2023-09-08T07:32:55;14.00;13.00;9.00
80555;PMS5003;69889;55.040;73.076;2023-09-08T07:35:21;10.00;9.00;6.50
80555;PMS5003;69889;55.040;73.076;2023-09-08T07:37:50;8.00;7.00;4.00
80555;PMS5003;69889;55.040;73.076;2023-09-08T07:40:17;12.00;8.25;6.75
80555;PMS5003;69889;55.040;73.076;2023-09-08T07:42:44;12.00;11.00;8.00
80555;PMS5003;69889;55.040;73.076;2023-09-08T07:45:12;14.75;12.00;7.50
80555;PMS5003;69889;55.040;73.076;2023-09-08T07:47:39;14.00;12.00;7.00
80555;PMS5003;69889;55.040;73.076;2023-09-08T07:50:15;15.00;12.50;8.00
80555;PMS5003;69889;55.040;73.076;2023-09-08T07:52:42;14.00;11.00;7.50
80555;PMS5003;69889;55.040;73.076;2023-09-08T07:55:10;10.00;8.00;6.00
80555;PMS5003;69889;55.040;73.076;2023-09-08T07:57:36;11.00;9.00;6.00
80555;PMS5003;69889;55.040;73.076;2023-09-08T08:00:03;13.00;10.25;6.25
80555;PMS5003;69889;55.040;73.076;2023-09-08T08:02:41;9.00;8.00;5.50
80555;PMS5003;69889;55.040;73.076;2023-09-08T08:05:08;9.75;8.50;6.00
80555;PMS5003;69889;55.040;73.076;2023-09-08T08:07:34;13.00;11.00;7.75
80555;PMS5003;69889;55.040;73.076;2023-09-08T08:10:01;13.00;11.75;7.25
80555;PMS5003;69889;55.040;73.076;2023-09-08T08:12:36;12.00;10.00;7.00
80555;PMS5003;69889;55.040;73.076;2023-09-08T08:15:04;10.25;9.00;6.00
80555;PMS5003;69889;55.040;73.076;2023-09-08T08:17:32;16.00;13.25;8.00
80555;PMS5003;69889;55.040;73.076;2023-09-08T08:19:58;10.00;9.50;6.00
80555;PMS5003;69889;55.040;73.076;2023-09-08T08:22:25;9.00;8.00;5.00
80555;PMS5003;69889;55.040;73.076;2023-09-08T08:24:53;8.00;7.00;6.00
80555;PMS5003;69889;55.040;73.076;2023-09-08T08:27:20;10.00;9.00;6.00
80555;PMS5003;69889;55.040;73.076;2023-09-08T08:29:46;10.00;9.00;5.75
80555;PMS5003;69889;55.040;73.076;2023-09-08T08:32:13;14.50;13.00;8.50
80555;PMS5003;69889;55.040;73.076;2023-09-08T08:34:40;16.00;14.00;10.00
80555;PMS5003;69889;55.040;73.076;2023-09-08T08:37:07;12.25;11.00;7.75
80555;PMS5003;69889;55.040;73.076;2023-09-08T08:39:33;11.00;10.00;7.00
80555;PMS5003;69889;55.040;73.076;2023-09-08T08:42:07;15.00;12.75;8.75
80555;PMS5003;69889;55.040;73.076;2023-09-08T08:44:37;13.00;11.00;8.00
80555;PMS5003;69889;55.040;73.076;2023-09-08T08:47:24;14.25;12.50;9.00
80555;PMS5003;69889;55.040;73.076;2023-09-08T08:50:04;17.00;14.00;9.25
80555;PMS5003;69889;55.040;73.076;2023-09-08T08:52:32;14.00;12.50;9.00
80555;PMS5003;69889;55.040;73.076;2023-09-08T08:54:59;12.00;11.00;8.50
80555;PMS5003;69889;55.040;73.076;2023-09-08T08:57:26;13.00;11.00;8.00
80555;PMS5003;69889;55.040;73.076;2023-09-08T08:59:54;10.25;9.50;6.25
80555;PMS5003;69889;55.040;73.076;2023-09-08T09:02:21;9.00;8.00;5.00
80555;PMS5003;69889;55.040;73.076;2023-09-08T09:04:48;11.25;9.00;6.00
80555;PMS5003;69889;55.040;73.076;2023-09-08T09:07:15;8.00;7.00;5.00
80555;PMS5003;69889;55.040;73.076;2023-09-08T09:09:44;9.00;9.00;6.00
80555;PMS5003;69889;55.040;73.076;2023-09-08T09:12:11;10.00;9.00;6.00
80555;PMS5003;69889;55.040;73.076;2023-09-08T09:14:37;10.75;9.00;7.00
80555;PMS5003;69889;55.040;73.076;2023-09-08T09:17:09;9.25;8.75;6.00
80555;PMS5003;69889;55.040;73.076;2023-09-08T09:19:37;9.00;9.00;6.00
80555;PMS5003;69889;55.040;73.076;2023-09-08T09:22:03;10.00;9.00;6.00
80555;PMS5003;69889;55.040;73.076;2023-09-08T09:24:34;13.00;10.00;8.00
80555;PMS5003;69889;55.040;73.076;2023-09-08T09:27:03;12.00;11.00;7.00
80555;PMS5003;69889;55.040;73.076;2023-09-08T09:29:34;14.00;11.00;7.00
80555;PMS5003;69889;55.040;73.076;2023-09-08T09:32:04;8.50;8.00;6.00
80555;PMS5003;69889;55.040;73.076;2023-09-08T09:34:34;12.00;11.00;7.00
80555;PMS5003;69889;55.040;73.076;2023-09-08T09:37:01;12.00;10.75;7.25
80555;PMS5003;69889;55.040;73.076;2023-09-08T09:39:31;13.00;12.00;8.00
80555;PMS5003;69889;55.040;73.076;2023-09-08T09:41:57;13.50;12.00;8.25
80555;PMS5003;69889;55.040;73.076;2023-09-08T09:44:24;15.00;14.00;9.00
80555;PMS5003;69889;55.040;73.076;2023-09-08T09:46:52;15.00;13.75;10.00
80555;PMS5003;69889;55.040;73.076;2023-09-08T09:49:19;13.00;11.00;8.00
80555;PMS5003;69889;55.040;73.076;2023-09-08T09:51:47;8.75;7.25;5.25
80555;PMS5003;69889;55.040;73.076;2023-09-08T09:54:14;11.75;10.00;7.00
80555;PMS5003;69889;55.040;73.076;2023-09-08T09:56:41;9.00;8.00;5.00
80555;PMS5003;69889;55.040;73.076;2023-09-08T09:59:09;8.00;8.00;5.00
80555;PMS5003;69889;55.040;73.076;2023-09-08T10:01:36;9.75;8.00;6.00
80555;PMS5003;69889;55.040;73.076;2023-09-08T10:04:03;10.00;9.00;6.00
80555;PMS5003;69889;55.040;73.076;2023-09-08T10:06:31;10.00;8.00;6.00
80555;PMS5003;69889;55.040;73.076;2023-09-08T10:09:00;8.00;7.00;5.00
80555;PMS5003;69889;55.040;73.076;2023-09-08T10:11:35;9.00;7.00;5.00
80555;PMS5003;69889;55.040;73.076;2023-09-08T10:14:05;10.00;9.00;5.00
80555;PMS5003;69889;55.040;73.076;2023-09-08T10:16:34;11.00;9.00;7.00
80555;PMS5003;69889;55.040;73.076;2023-09-08T10:19:01;11.00;10.00;7.00
80555;PMS5003;69889;55.040;73.076;2023-09-08T10:21:32;4.00;4.00;3.00
80555;PMS5003;69889;55.040;73.076;2023-09-08T10:24:04;11.00;10.00;6.75
80555;PMS5003;69889;55.040;73.076;2023-09-08T10:26:34;11.50;10.00;6.00
80555;PMS5003;69889;55.040;73.076;2023-09-08T10:29:03;9.00;8.00;5.00
80555;PMS5003;69889;55.040;73.076;2023-09-08T10:31:30;9.00;8.00;6.00
80555;PMS5003;69889;55.040;73.076;2023-09-08T10:33:57;5.25;5.00;3.75
80555;PMS5003;69889;55.040;73.076;2023-09-08T10:36:24;6.00;5.50;4.00
80555;PMS5003;69889;55.040;73.076;2023-09-08T10:38:51;7.00;7.00;5.00
80555;PMS5003;69889;55.040;73.076;2023-09-08T10:43:59;6.00;6.00;3.25
80555;PMS5003;69889;55.040;73.076;2023-09-08T10:46:28;6.25;6.00;4.00
80555;PMS5003;69889;55.040;73.076;2023-09-08T10:48:55;8.00;6.00;4.50
80555;PMS5003;69889;55.040;73.076;2023-09-08T10:51:41;6.50;6.00;4.00
80555;PMS5003;69889;55.040;73.076;2023-09-08T10:54:45;8.00;7.00;5.00
80555;PMS5003;69889;55.040;73.076;2023-09-08T10:57:15;7.00;6.00;4.00
80555;PMS5003;69889;55.040;73.076;2023-09-08T10:59:44;9.00;8.25;5.00
80555;PMS5003;69889;55.040;73.076;2023-09-08T11:04:56;5.75;5.00;3.25
80555;PMS5003;69889;55.040;73.076;2023-09-08T11:07:24;7.00;7.00;5.00
80555;PMS5003;69889;55.040;73.076;2023-09-08T11:09:51;5.75;5.00;3.00
80555;PMS5003;69889;55.040;73.076;2023-09-08T11:12:17;9.00;8.00;5.00
80555;PMS5003;69889;55.040;73.076;2023-09-08T11:14:44;7.00;6.00;4.00
80555;PMS5003;69889;55.040;73.076;2023-09-08T11:17:10;6.00;6.00;3.75
80555;PMS5003;69889;55.040;73.076;2023-09-08T11:19:46;7.00;6.75;4.50
80555;PMS5003;69889;55.040;73.076;2023-09-08T11:22:18;5.00;4.75;3.00
80555;PMS5003;69889;55.040;73.076;2023-09-08T11:24:45;5.50;5.00;4.00
80555;PMS5003;69889;55.040;73.076;2023-09-08T11:27:11;4.00;4.00;3.00
80555;PMS5003;69889;55.040;73.076;2023-09-08T11:29:38;6.00;5.00;4.00
80555;PMS5003;69889;55.040;73.076;2023-09-08T11:32:07;7.00;6.00;4.00
80555;PMS5003;69889;55.040;73.076;2023-09-08T11:34:34;6.00;6.00;4.00
80555;PMS5003;69889;55.040;73.076;2023-09-08T11:37:07;5.00;4.50;3.00
80555;PMS5003;69889;55.040;73.076;2023-09-08T11:39:37;5.00;5.00;3.00
80555;PMS5003;69889;55.040;73.076;2023-09-08T11:42:05;4.75;4.00;2.50
80555;PMS5003;69889;55.040;73.076;2023-09-08T11:44:32;5.00;4.00;3.00
80555;PMS5003;69889;55.040;73.076;2023-09-08T11:46:59;4.25;4.00;3.00
80555;PMS5003;69889;55.040;73.076;2023-09-08T11:49:26;5.00;5.00;3.00
80555;PMS5003;69889;55.040;73.076;2023-09-08T11:51:52;4.00;4.00;3.00
80555;PMS5003;69889;55.040;73.076;2023-09-08T11:54:19;5.00;4.00;3.00
80555;PMS5003;69889;55.040;73.076;2023-09-08T11:56:46;5.00;4.75;3.00
80555;PMS5003;69889;55.040;73.076;2023-09-08T11:59:13;5.00;5.00;3.00
80555;PMS5003;69889;55.040;73.076;2023-09-08T12:01:39;5.00;5.00;3.00
80555;PMS5003;69889;55.040;73.076;2023-09-08T12:04:06;6.00;5.00;4.00
80555;PMS5003;69889;55.040;73.076;2023-09-08T12:06:32;5.00;5.00;3.00
80555;PMS5003;69889;55.040;73.076;2023-09-08T12:09:02;7.00;6.00;4.00
80555;PMS5003;69889;55.040;73.076;2023-09-08T12:11:35;9.00;8.00;4.75
80555;PMS5003;69889;55.040;73.076;2023-09-08T12:14:06;4.00;4.00;3.00
80555;PMS5003;69889;55.040;73.076;2023-09-08T12:16:33;6.00;6.00;4.00
80555;PMS5003;69889;55.040;73.076;2023-09-08T12:19:00;6.00;4.00;3.00
80555;PMS5003;69889;55.040;73.076;2023-09-08T12:21:26;6.50;6.00;3.00
80555;PMS5003;69889;55.040;73.076;2023-09-08T12:23:53;6.00;6.00;4.00
80555;PMS5003;69889;55.040;73.076;2023-09-08T12:26:20;7.00;5.00;3.25
80555;PMS5003;69889;55.040;73.076;2023-09-08T12:28:47;6.00;6.00;4.00
80555;PMS5003;69889;55.040;73.076;2023-09-08T12:31:14;5.00;5.00;4.00
80555;PMS5003;69889;55.040;73.076;2023-09-08T12:33:42;5.00;5.00;3.00
80555;PMS5003;69889;55.040;73.076;2023-09-08T12:36:09;5.00;5.00;3.00
80555;PMS5003;69889;55.040;73.076;2023-09-08T12:38:36;6.00;5.00;3.00
80555;PMS5003;69889;55.040;73.076;2023-09-08T12:41:03;5.00;5.00;3.00
80555;PMS5003;69889;55.040;73.076;2023-09-08T12:43:30;4.50;4.00;2.75
80555;PMS5003;69889;55.040;73.076;2023-09-08T12:45:56;5.00;4.00;3.00
80555;PMS5003;69889;55.040;73.076;2023-09-08T12:48:23;5.00;4.00;3.00
80555;PMS5003;69889;55.040;73.076;2023-09-08T12:50:50;4.25;4.00;3.25
80555;PMS5003;69889;55.040;73.076;2023-09-08T12:53:17;5.00;4.50;3.00
80555;PMS5003;69889;55.040;73.076;2023-09-08T12:55:47;5.00;4.00;2.75
80555;PMS5003;69889;55.040;73.076;2023-09-08T12:58:14;6.00;5.00;3.50
80555;PMS5003;69889;55.040;73.076;2023-09-08T13:00:42;6.00;6.00;4.00
80555;PMS5003;69889;55.040;73.076;2023-09-08T13:03:09;4.00;4.00;3.00
80555;PMS5003;69889;55.040;73.076;2023-09-08T13:05:36;4.00;4.00;3.00
80555;PMS5003;69889;55.040;73.076;2023-09-08T13:08:04;5.00;5.00;4.00
80555;PMS5003;69889;55.040;73.076;2023-09-08T13:10:31;6.00;5.00;3.00
80555;PMS5003;69889;55.040;73.076;2023-09-08T13:12:58;7.00;6.00;3.00
80555;PMS5003;69889;55.040;73.076;2023-09-08T13:15:24;5.25;5.00;4.00
80555;PMS5003;69889;55.040;73.076;2023-09-08T13:17:51;5.00;5.00;4.00
80555;PMS5003;69889;55.040;73.076;2023-09-08T13:20:18;5.00;5.00;3.00
80555;PMS5003;69889;55.040;73.076;2023-09-08T13:22:44;4.00;4.00;3.00
80555;PMS5003;69889;55.040;73.076;2023-09-08T13:25:11;3.75;3.25;3.00
80555;PMS5003;69889;55.040;73.076;2023-09-08T13:27:40;7.00;5.00;3.00
80555;PMS5003;69889;55.040;73.076;2023-09-08T13:30:09;5.00;5.00;3.00
80555;PMS5003;69889;55.040;73.076;2023-09-08T13:32:37;5.50;5.00;3.50
80555;PMS5003;69889;55.040;73.076;2023-09-08T13:35:04;5.50;4.75;3.00
80555;PMS5003;69889;55.040;73.076;2023-09-08T13:37:30;5.00;4.50;3.00
80555;PMS5003;69889;55.040;73.076;2023-09-08T13:39:57;23.25;20.25;13.25
80555;PMS5003;69889;55.040;73.076;2023-09-08T13:42:24;9.75;8.25;6.00
80555;PMS5003;69889;55.040;73.076;2023-09-08T13:44:50;6.00;6.00;3.50
80555;PMS5003;69889;55.040;73.076;2023-09-08T13:47:17;7.00;6.00;4.00
80555;PMS5003;69889;55.040;73.076;2023-09-08T13:49:44;15.50;12.50;7.75
80555;PMS5003;69889;55.040;73.076;2023-09-08T13:52:11;20.00;17.75;11.00
80555;PMS5003;69889;55.040;73.076;2023-09-08T13:54:38;32.25;26.25;16.00
80555;PMS5003;69889;55.040;73.076;2023-09-08T13:57:06;37.00;30.00;19.00
80555;PMS5003;69889;55.040;73.076;2023-09-08T13:59:32;23.50;20.00;12.00
80555;PMS5003;69889;55.040;73.076;2023-09-08T14:01:59;18.00;14.00;9.00
80555;PMS5003;69889;55.040;73.076;2023-09-08T14:04:27;12.00;11.00;7.00
80555;PMS5003;69889;55.040;73.076;2023-09-08T14:06:54;13.00;11.50;7.25
80555;PMS5003;69889;55.040;73.076;2023-09-08T14:09:21;16.50;14.00;9.00